Time;durP1;ratioP1;P1;durP2;ratioP2;P2;SDS_P1;SDS_P2;PMS_P1;PMS_P2;Temp;Humidity;BMP_temperature;BMP_pressure;BME280_temperature;BME280_humidity;BME280_pressure;Samples;Min_cycle;Max_cycle;Signal;HPM_P1;HPM_P2
2020/12/24 00:00:07;;;;;;;1.65;0.80;;;;;;;27.60;34.56;96162.34;4954029;28;20042;-38
2020/12/24 00:02:33;;;;;;;1.55;0.90;;;;;;;27.59;34.86;96179.09;4961453;28;20045;-36
2020/12/24 00:04:59;;;;;;;2.03;0.70;;;;;;;27.58;34.48;96157.19;4959757;28;20488;-41
2020/12/24 00:07:25;;;;;;;1.23;0.80;;;;;;;27.56;34.66;96153.84;4962158;28;20500;-33
2020/12/24 00:09:50;;;;;;;1.30;0.80;;;;;;;27.53;34.55;96140.88;4955334;28;20042;-40
2020/12/24 00:12:16;;;;;;;1.77;0.90;;;;;;;27.52;34.43;96144.47;4955329;28;20366;-39
2020/12/24 00:14:41;;;;;;;1.67;0.77;;;;;;;27.51;34.85;96133.09;4951585;28;20054;-37
2020/12/24 00:17:07;;;;;;;1.25;0.80;;;;;;;27.51;34.60;96119.94;4960528;28;20571;-38
2020/12/24 00:19:33;;;;;;;2.25;1.00;;;;;;;27.51;34.60;96140.16;4961561;28;20563;-37
2020/12/24 00:21:59;;;;;;;1.45;0.85;;;;;;;27.52;35.02;96147.94;4953920;28;20049;-40
2020/12/24 00:24:24;;;;;;;2.15;0.75;;;;;;;27.53;34.93;96140.88;4972765;28;20067;-39
2020/12/24 00:26:50;;;;;;;2.05;0.80;;;;;;;27.53;34.88;96125.94;4954048;28;20086;-35
2020/12/24 00:29:16;;;;;;;1.15;0.80;;;;;;;27.56;34.87;96143.31;4961067;28;20121;-35
2020/12/24 00:31:42;;;;;;;0.57;0.55;;;;;;;27.57;34.69;96160.78;4955872;28;20634;-34
2020/12/24 00:34:07;;;;;;;1.10;0.63;;;;;;;27.57;34.69;96138.91;4963911;28;20055;-37
2020/12/24 00:36:33;;;;;;;1.15;0.70;;;;;;;27.58;34.71;96122.97;4959622;28;20042;-37
2020/12/24 00:38:59;;;;;;;2.05;0.60;;;;;;;27.58;34.91;96120.34;4965399;28;20612;-36
2020/12/24 00:41:25;;;;;;;1.85;0.88;;;;;;;27.56;34.79;96111.72;4960729;28;20134;-39
2020/12/24 00:43:50;;;;;;;1.63;0.60;;;;;;;27.55;34.82;96115.31;4959122;28;20047;-40
2020/12/24 00:46:16;;;;;;;0.98;0.70;;;;;;;27.56;34.65;96126.66;4958727;28;20042;-34
2020/12/24 00:48:42;;;;;;;0.98;0.60;;;;;;;27.55;34.75;96136.38;4960100;28;20049;-33
2020/12/24 00:51:07;;;;;;;0.88;0.57;;;;;;;27.55;34.71;96146.91;4953509;28;20043;-36
2020/12/24 00:53:33;;;;;;;1.58;0.70;;;;;;;27.55;34.83;96157.41;4963204;28;20584;-40
2020/12/24 00:55:59;;;;;;;1.83;0.80;;;;;;;27.56;34.76;96159.09;4960509;28;20562;-38
2020/12/24 00:58:25;;;;;;;0.55;0.50;;;;;;;27.57;34.70;96149.41;4953662;28;20038;-37
2020/12/24 01:00:51;;;;;;;0.40;0.40;;;;;;;27.57;34.77;96129.19;4951117;28;20053;-36
2020/12/24 01:03:17;;;;;;;1.63;0.65;;;;;;;27.57;34.57;96144.97;4953502;28;20038;-32
2020/12/24 01:05:42;;;;;;;0.60;0.60;;;;;;;27.57;34.63;96166.03;4955968;28;21984;-34
2020/12/24 01:08:08;;;;;;;0.93;0.70;;;;;;;27.58;34.82;96143.19;4962099;28;20058;-34
2020/12/24 01:10:34;;;;;;;2.85;0.60;;;;;;;27.57;34.69;96150.25;4956288;28;20065;-42
2020/12/24 01:12:59;;;;;;;1.70;0.60;;;;;;;27.57;34.56;96166.03;4959688;28;20047;-35
2020/12/24 01:15:25;;;;;;;1.23;0.60;;;;;;;27.59;34.66;96169.41;4957966;28;20057;-38
2020/12/24 01:17:50;;;;;;;0.80;0.60;;;;;;;27.59;34.37;96147.50;4957589;28;20520;-39
2020/12/24 01:20:16;;;;;;;0.63;0.50;;;;;;;27.59;34.69;96142.25;4955235;28;20046;-37
2020/12/24 01:22:42;;;;;;;1.38;0.60;;;;;;;27.59;34.63;96148.34;4968402;28;20394;-38
2020/12/24 01:25:08;;;;;;;0.50;0.40;;;;;;;27.59;34.58;96161.53;4960300;28;20038;-37
2020/12/24 01:27:33;;;;;;;1.85;0.63;;;;;;;27.58;34.81;96157.19;4950336;28;20035;-40
2020/12/24 01:29:59;;;;;;;2.50;0.50;;;;;;;27.58;34.54;96145.84;4960309;28;20035;-36
2020/12/24 01:32:25;;;;;;;0.98;0.57;;;;;;;27.57;34.65;96159.94;4955509;28;20799;-36
2020/12/24 01:34:50;;;;;;;1.42;0.60;;;;;;;27.57;34.66;96160.78;4958007;28;20804;-37
2020/12/24 01:37:16;;;;;;;0.70;0.60;;;;;;;27.57;34.63;96160.78;4963284;28;20504;-35
2020/12/24 01:39:41;;;;;;;1.13;0.50;;;;;;;27.58;34.46;96177.41;4950966;28;20046;-37
2020/12/24 01:42:07;;;;;;;0.88;0.52;;;;;;;27.57;34.47;96197.63;4960617;28;20677;-38
2020/12/24 01:44:33;;;;;;;0.50;0.50;;;;;;;27.56;34.68;96209.09;4954041;28;20543;-38
2020/12/24 01:46:59;;;;;;;0.73;0.50;;;;;;;27.56;34.51;96201.19;4955137;28;20497;-37
2020/12/24 01:49:25;;;;;;;2.92;0.60;;;;;;;27.57;34.63;96223.94;4964349;28;20096;-37
2020/12/24 01:51:52;;;;;;;1.05;0.70;;;;;;;27.56;34.72;96219.63;4959085;28;20051;-37
2020/12/24 01:54:18;;;;;;;1.63;0.82;;;;;;;27.56;34.50;96227.53;4958012;28;20656;-38
2020/12/24 01:56:44;;;;;;;1.10;0.65;;;;;;;27.56;34.47;96209.09;4959449;28;20072;-38
2020/12/24 01:59:12;;;;;;;0.82;0.50;;;;;;;27.55;34.47;96146.91;4966785;28;20489;-34
2020/12/24 02:01:37;;;;;;;1.45;0.57;;;;;;;27.53;34.38;96165.41;4952589;28;20043;-37
2020/12/24 02:04:02;;;;;;;1.30;0.52;;;;;;;27.38;34.44;96155.94;4955732;28;20061;-40
2020/12/24 02:06:28;;;;;;;0.57;0.32;;;;;;;27.50;34.51;96180.59;4960496;28;20053;-37
2020/12/24 02:08:53;;;;;;;3.65;0.80;;;;;;;27.49;34.63;96158.69;4962574;28;20100;-37
2020/12/24 02:11:19;;;;;;;0.95;0.60;;;;;;;27.51;34.61;96155.94;4965606;28;20039;-36
2020/12/24 02:13:44;;;;;;;1.02;0.47;;;;;;;27.49;34.40;96144.69;4977499;28;20043;-41
2020/12/24 02:16:10;;;;;;;0.88;0.50;;;;;;;27.50;34.43;96133.22;4948309;28;20047;-35
2020/12/24 02:18:36;;;;;;;0.52;0.40;;;;;;;27.48;34.54;96101.75;4960164;28;20096;-35
2020/12/24 02:21:02;;;;;;;1.45;0.50;;;;;;;27.49;34.49;96092.03;4962012;28;20050;-37
2020/12/24 02:23:28;;;;;;;2.08;0.43;;;;;;;27.47;34.45;96072.91;4955269;28;20078;-36
2020/12/24 02:25:53;;;;;;;0.88;0.40;;;;;;;27.45;34.37;96062.50;4959221;28;20051;-37
2020/12/24 02:28:18;;;;;;;1.30;0.60;;;;;;;27.44;34.60;96071.34;4966676;28;20039;-39
2020/12/24 02:30:44;;;;;;;0.90;0.38;;;;;;;27.43;34.55;96085.44;4956415;28;20532;-33
2020/12/24 02:33:10;;;;;;;2.22;0.40;;;;;;;27.44;34.55;96081.00;4960693;28;20125;-40
2020/12/24 02:35:36;;;;;;;1.13;0.40;;;;;;;27.45;34.60;96093.22;4960029;28;20051;-40
2020/12/24 02:38:01;;;;;;;0.95;0.40;;;;;;;27.45;34.45;96090.56;4964185;28;20035;-36
2020/12/24 02:40:27;;;;;;;1.08;0.55;;;;;;;27.44;34.23;96091.53;4953268;28;20539;-37
2020/12/24 02:42:53;;;;;;;1.15;0.40;;;;;;;27.42;34.38;96090.81;4956425;28;20043;-38
2020/12/24 02:45:18;;;;;;;0.25;0.25;;;;;;;27.41;34.49;96086.50;4960920;28;20053;-37
2020/12/24 02:47:44;;;;;;;2.60;0.52;;;;;;;27.38;34.49;96077.88;4963758;28;20544;-36
2020/12/24 02:50:09;;;;;;;1.58;0.50;;;;;;;27.38;34.51;96077.88;4959383;28;20117;-34
2020/12/24 02:52:35;;;;;;;0.45;0.30;;;;;;;27.38;34.62;96083.13;4963139;28;20069;-39
2020/12/24 02:55:01;;;;;;;3.33;0.40;;;;;;;27.36;34.45;96078.94;4954797;28;20493;-35
2020/12/24 02:57:27;;;;;;;0.30;0.30;;;;;;;27.37;34.63;96086.72;4964729;28;20070;-36
2020/12/24 02:59:53;;;;;;;1.42;0.63;;;;;;;27.37;34.64;96096.41;4957442;28;20046;-36
2020/12/24 03:02:18;;;;;;;0.63;0.30;;;;;;;27.37;34.47;96102.50;4963119;28;20042;-34
2020/12/24 03:04:43;;;;;;;1.05;0.60;;;;;;;27.37;34.53;96104.28;4960014;28;20051;-41
2020/12/24 03:07:09;;;;;;;0.40;0.40;;;;;;;27.36;34.45;96111.34;4962274;28;22378;-34
2020/12/24 03:09:35;;;;;;;0.50;0.43;;;;;;;27.34;34.38;96129.03;4954080;28;20049;-36
2020/12/24 03:12:00;;;;;;;0.52;0.50;;;;;;;27.33;34.55;96122.09;4963044;28;20500;-36
2020/12/24 03:14:25;;;;;;;0.70;0.38;;;;;;;27.35;34.44;96109.66;4957550;28;20035;-37
2020/12/24 03:16:51;;;;;;;0.30;0.30;;;;;;;27.36;34.45;96076.31;4962846;28;20074;-39
2020/12/24 03:19:16;;;;;;;0.30;0.20;;;;;;;27.35;34.43;96051.78;4965108;28;20030;-34
2020/12/24 03:21:42;;;;;;;0.30;0.30;;;;;;;27.26;34.31;96036.66;4959968;28;20043;-35
2020/12/24 03:24:08;;;;;;;1.95;0.40;;;;;;;27.34;34.46;96050.09;4963126;28;20046;-39
2020/12/24 03:26:33;;;;;;;0.40;0.40;;;;;;;27.34;34.56;96050.09;4957000;28;20588;-38
2020/12/24 03:28:59;;;;;;;2.28;0.40;;;;;;;27.33;34.61;96045.78;4962331;28;20768;-35
2020/12/24 03:31:25;;;;;;;0.20;0.20;;;;;;;27.34;34.39;96046.66;4961303;28;20066;-38
2020/12/24 03:33:51;;;;;;;0.40;0.38;;;;;;;27.36;34.42;96042.09;4960141;28;20134;-36
2020/12/24 03:36:16;;;;;;;0.47;0.30;;;;;;;27.35;34.49;96050.94;4958522;28;20051;-35
2020/12/24 03:38:42;;;;;;;1.25;0.50;;;;;;;27.35;34.42;96030.72;4959763;28;20053;-39
2020/12/24 03:41:08;;;;;;;0.47;0.20;;;;;;;27.34;34.42;96031.69;4953936;28;20496;-37
2020/12/24 03:43:34;;;;;;;0.52;0.40;;;;;;;27.34;34.40;96034.31;4958390;28;20053;-36
2020/12/24 03:46:00;;;;;;;0.80;0.30;;;;;;;27.33;34.46;96026.53;4962579;28;20043;-35
2020/12/24 03:48:25;;;;;;;1.13;0.50;;;;;;;27.33;34.33;96026.53;4961718;28;20046;-33
2020/12/24 03:50:52;;;;;;;1.02;0.30;;;;;;;27.31;34.48;96039.78;4960370;28;20046;-40
2020/12/24 03:53:18;;;;;;;0.45;0.30;;;;;;;27.31;34.45;96045.03;4957030;28;20551;-37
2020/12/24 03:55:43;;;;;;;0.38;0.30;;;;;;;27.33;34.50;96053.69;4958417;28;20571;-38
2020/12/24 03:58:09;;;;;;;0.68;0.20;;;;;;;27.32;34.35;96057.28;4958933;28;20656;-40
2020/12/24 04:00:35;;;;;;;0.50;0.30;;;;;;;27.32;34.48;96052.00;4953759;28;20058;-40
2020/12/24 04:03:01;;;;;;;0.40;0.28;;;;;;;27.32;34.46;96057.28;4947091;28;20050;-35
2020/12/24 04:05:27;;;;;;;0.52;0.30;;;;;;;27.31;34.36;96049.50;4952745;28;20038;-36
2020/12/24 04:07:52;;;;;;;0.60;0.38;;;;;;;27.29;34.37;96060.13;4963380;28;20041;-37
2020/12/24 04:10:18;;;;;;;1.42;0.30;;;;;;;27.30;34.42;96067.06;4952480;28;20039;-37
2020/12/24 04:12:43;;;;;;;0.30;0.30;;;;;;;27.30;34.41;96061.78;4957467;28;20065;-41
2020/12/24 04:15:09;;;;;;;0.80;0.40;;;;;;;27.30;34.44;96069.69;4968466;28;20042;-40
2020/12/24 04:17:34;;;;;;;1.30;0.40;;;;;;;27.29;34.39;96073.25;4976105;28;20045;-36
2020/12/24 04:20:00;;;;;;;0.82;0.30;;;;;;;27.31;34.44;96062.63;4954487;28;20536;-36
2020/12/24 04:22:25;;;;;;;1.17;0.52;;;;;;;27.29;34.58;96065.38;4959480;28;20563;-36
2020/12/24 04:24:51;;;;;;;0.25;0.25;;;;;;;27.28;34.50;96058.44;4961620;28;20050;-43
2020/12/24 04:27:17;;;;;;;1.33;0.40;;;;;;;27.29;34.34;96052.22;4956752;28;20527;-37
2020/12/24 04:29:43;;;;;;;1.13;0.35;;;;;;;27.29;34.53;96057.47;4958393;28;20102;-36
2020/12/24 04:32:09;;;;;;;0.57;0.20;;;;;;;27.29;34.43;96032.97;4972197;28;20499;-37
2020/12/24 04:34:34;;;;;;;0.30;0.20;;;;;;;27.29;34.40;96031.19;4960773;28;20698;-34
2020/12/24 04:37:00;;;;;;;0.50;0.30;;;;;;;27.28;34.39;96040.03;4961752;28;20051;-33
2020/12/24 04:39:26;;;;;;;0.55;0.22;;;;;;;27.15;34.34;96028.69;4968161;28;20122;-40
2020/12/24 04:41:54;;;;;;;0.20;0.20;;;;;;;27.25;34.53;96035.81;4962147;28;20057;-38
2020/12/24 04:44:20;;;;;;;0.65;0.40;;;;;;;27.24;34.27;96041.19;4935031;28;20074;-38
2020/12/24 04:46:45;;;;;;;0.63;0.30;;;;;;;27.20;34.38;96027.44;4950280;28;20073;-35
2020/12/24 04:49:11;;;;;;;0.47;0.10;;;;;;;27.25;34.32;96034.97;4943935;28;20109;-41
2020/12/24 04:51:37;;;;;;;0.85;0.38;;;;;;;27.25;34.34;96029.72;4964532;28;20050;-40
2020/12/24 04:54:02;;;;;;;0.90;0.28;;;;;;;27.25;34.31;96025.31;4957810;28;20057;-35
2020/12/24 04:56:28;;;;;;;0.35;0.30;;;;;;;27.26;34.26;96024.34;4958219;28;20042;-37
2020/12/24 04:58:54;;;;;;;0.63;0.32;;;;;;;27.26;34.36;96026.13;4961840;28;20732;-39
2020/12/24 05:01:20;;;;;;;0.52;0.20;;;;;;;27.25;34.25;96020.03;4951812;28;20093;-37
2020/12/24 05:03:46;;;;;;;0.30;0.20;;;;;;;27.25;34.30;96019.19;4960745;28;20045;-37
2020/12/24 05:06:17;;;;;;;0.60;0.40;;;;;;;27.23;34.37;96016.66;4958361;28;20409;-36
2020/12/24 05:08:52;;;;;;;0.55;0.35;;;;;;;27.24;34.28;96015.72;4957910;28;20531;-36
2020/12/24 05:11:27;;;;;;;1.25;0.30;;;;;;;27.22;34.32;96009.72;4965330;28;20650;-37
2020/12/24 05:13:53;;;;;;;0.17;0.17;;;;;;;27.23;34.28;96010.59;4960223;28;20137;-33
2020/12/24 05:16:20;;;;;;;1.70;0.47;;;;;;;27.22;34.19;96011.50;4956825;28;20043;-37
2020/12/24 05:18:46;;;;;;;0.80;0.20;;;;;;;27.21;34.33;96012.47;4976456;28;20046;-33
2020/12/24 05:21:11;;;;;;;0.93;0.20;;;;;;;27.21;34.33;96012.47;4959841;28;20039;-37
2020/12/24 05:23:37;;;;;;;0.30;0.20;;;;;;;27.21;34.39;96025.63;4955309;28;20051;-36
2020/12/24 05:26:17;;;;;;;0.57;0.25;;;;;;;27.19;34.30;96019.63;4971563;28;20042;-38
2020/12/24 05:28:43;;;;;;;0.20;0.17;;;;;;;27.20;34.24;96016.06;4959132;28;20050;-43
2020/12/24 05:31:08;;;;;;;0.20;0.20;;;;;;;27.20;34.29;96022.16;4971225;28;20043;-40
2020/12/24 05:33:34;;;;;;;1.80;0.30;;;;;;;27.20;34.16;96016.06;4973947;28;20065;-38
2020/12/24 05:36:21;;;;;;;0.73;0.22;;;;;;;27.20;34.37;96016.91;4962421;28;20061;-36
2020/12/24 05:38:47;;;;;;;1.30;0.47;;;;;;;27.19;34.31;96017.84;4960066;28;20041;-36
2020/12/24 05:41:29;;;;;;;2.85;0.40;;;;;;;27.19;34.29;96012.56;4965748;28;20123;-40
2020/12/24 05:43:56;;;;;;;0.30;0.20;;;;;;;27.20;34.23;96005.53;4963712;28;20050;-37
2020/12/24 05:46:23;;;;;;;0.65;0.30;;;;;;;27.22;34.21;96007.09;4955213;28;20405;-36
2020/12/24 05:48:49;;;;;;;0.45;0.30;;;;;;;27.22;34.26;95998.34;4967568;28;20082;-39
2020/12/24 05:51:18;;;;;;;0.40;0.30;;;;;;;27.24;34.15;95996.47;4958419;28;20043;-38
2020/12/24 05:53:47;;;;;;;0.40;0.10;;;;;;;27.23;34.18;95994.81;4964160;28;20059;-36
2020/12/24 05:56:20;;;;;;;0.95;0.30;;;;;;;27.21;34.19;95987.03;4957916;28;20046;-38
2020/12/24 05:58:46;;;;;;;0.20;0.10;;;;;;;27.19;34.28;95991.53;4969843;28;20030;-38
2020/12/24 06:01:12;;;;;;;0.52;0.28;;;;;;;27.20;34.24;95997.66;4960486;28;20137;-34
2020/12/24 06:03:37;;;;;;;0.90;0.30;;;;;;;27.20;34.44;95995.88;4940348;28;20043;-34
2020/12/24 06:06:06;;;;;;;0.17;0.17;;;;;;;27.19;34.06;95994.16;4946961;28;20055;-37
2020/12/24 06:08:32;;;;;;;0.20;0.10;;;;;;;27.19;34.10;95982.81;4954482;28;20412;-41
2020/12/24 06:11:01;;;;;;;0.22;0.10;;;;;;;27.18;34.11;95981.13;4946284;28;20042;-37
2020/12/24 06:13:45;;;;;;;0.65;0.32;;;;;;;27.18;34.04;95975.84;4964492;28;20145;-37
2020/12/24 06:16:12;;;;;;;0.52;0.10;;;;;;;27.16;34.14;95962.00;4957719;28;20050;-36
2020/12/24 06:18:42;;;;;;;0.38;0.20;;;;;;;27.16;34.32;95962.00;4958007;28;20138;-37
2020/12/24 06:21:17;;;;;;;0.75;0.20;;;;;;;27.15;34.13;95955.06;4952912;28;20046;-40
2020/12/24 06:23:53;;;;;;;0.60;0.30;;;;;;;27.13;34.21;95942.88;4965170;28;20042;-39
2020/12/24 06:26:24;;;;;;;1.27;0.30;;;;;;;27.13;34.14;95948.13;4960579;28;20031;-40
2020/12/24 06:28:52;;;;;;;0.30;0.30;;;;;;;27.13;34.21;95948.13;4960135;28;20046;-43
2020/12/24 06:31:17;;;;;;;1.25;0.10;;;;;;;27.13;34.05;95945.50;4970909;28;20137;-42
2020/12/24 06:33:43;;;;;;;0.43;0.20;;;;;;;27.13;34.18;95942.88;4958348;28;20065;-35
2020/12/24 06:36:35;;;;;;;0.68;0.20;;;;;;;27.13;34.17;95942.88;4959858;28;20106;-38
2020/12/24 06:39:01;;;;;;;;;;;;;;;27.13;34.26;95927.09;4961962;28;20649;-39
2020/12/24 06:41:26;;;;;;;;;;;;;;;27.15;34.15;95923.50;4960204;28;20000;-36
2020/12/24 06:43:51;;;;;;;;;;;;;;;27.17;34.09;95929.47;4968442;28;20307;-38
2020/12/24 06:46:16;;;;;;;;;;;;;;;27.18;34.09;95928.50;4969432;28;19960;-37
2020/12/24 06:48:42;;;;;;;;;;;;;;;27.21;34.04;95936.19;4980042;28;19918;-36
2020/12/24 06:51:07;;;;;;;;;;;;;;;27.22;33.92;95940.50;4965516;28;20304;-38
2020/12/24 06:53:33;;;;;;;;;;;;;;;27.24;33.83;95943.88;4948813;28;19925;-41
2020/12/24 06:56:13;;;;;;;;;;;;;;;27.27;33.81;95948.91;4953066;28;19918;-37
2020/12/24 06:58:38;;;;;;;;;;;;;;;27.26;33.65;95937.53;4963118;28;19921;-37
2020/12/24 07:01:04;;;;;;;;;;;;;;;27.29;33.73;95946.16;4961195;28;19914;-39
2020/12/24 07:03:30;;;;;;;;;;;;;;;27.29;33.65;95941.75;4962653;28;19914;-37
2020/12/24 07:05:56;;;;;;;;;;;;;;;27.30;33.59;95927.63;4960782;28;20000;-38
2020/12/24 07:08:33;;;;;;;;;;;;;;;27.32;33.75;95935.41;4966857;28;20732;-38
2020/12/24 07:10:59;;;;;;;;;;;;;;;27.33;33.65;95935.31;4963285;28;20491;-35
2020/12/24 07:13:31;;;;;;;;;;;;;;;27.34;33.40;95942.25;4967183;28;19917;-38
2020/12/24 07:15:56;;;;;;;;;;;;;;;27.35;33.46;95932.56;4955246;28;19914;-39
2020/12/24 07:18:23;;;;;;;;;;;;;;;27.31;33.48;95934.56;4959771;28;19918;-37
2020/12/24 07:20:49;;;;;;;;;;;;;;;27.32;33.36;95936.25;4964809;28;19914;-38
2020/12/24 07:23:14;;;;;;;;;;;;;;;27.34;33.25;95939.59;4967526;28;19914;-40
2020/12/24 07:25:39;;;;;;;;;;;;;;;27.35;33.25;95936.00;4966035;28;19914;-41
2020/12/24 07:28:05;;;;;;;;;;;;;;;27.34;33.31;95928.25;4971355;28;19918;-39
2020/12/24 07:30:30;;;;;;;;;;;;;;;27.34;32.09;95929.09;4977567;28;19914;-37
2020/12/24 07:32:56;;;;;;;;;;;;;;;27.33;33.11;95932.66;4964020;28;19917;-40
2020/12/24 07:35:21;;;;;;;;;;;;;;;27.30;33.25;95921.53;4948123;28;19964;-39
2020/12/24 07:37:47;;;;;;;;;;;;;;;27.30;33.36;95926.81;4954218;28;19910;-37
2020/12/24 07:40:13;;;;;;;;;;;;;;;27.28;33.42;95924.28;4963917;28;19925;-41
2020/12/24 07:42:38;;;;;;;;;;;;;;;27.27;33.30;95918.16;4966269;28;19914;-37
2020/12/24 07:45:04;;;;;;;;;;;;;;;27.28;32.39;95919.03;4966455;28;19910;-38
2020/12/24 07:47:30;;;;;;;;;;;;;;;27.27;33.21;95918.16;4966254;28;19914;-39
2020/12/24 07:49:55;;;;;;;;;;;;;;;27.28;33.11;95919.03;4958787;28;19925;-36
2020/12/24 07:52:21;;;;;;;;;;;;;;;27.28;33.28;95921.66;4966954;28;20512;-40
2020/12/24 07:54:47;;;;;;;;;;;;;;;27.28;33.15;95919.03;4981225;28;19914;-38
2020/12/24 07:57:21;;;;;;;;;;;;;;;27.27;34.90;95917.34;4951825;28;20299;-32
2020/12/24 07:59:47;;;;;;;;;;;;;;;27.27;33.47;95927.88;4959698;28;19922;-40
2020/12/24 08:02:12;;;;;;;;;;;;;;;27.31;33.29;95917.97;4956286;28;19925;-40
2020/12/24 08:04:37;;;;;;;;;;;;;;;27.33;33.21;95914.25;4948480;28;20566;-35
2020/12/24 08:07:03;;;;;;;;;;;;;;;27.35;33.13;95909.72;4946333;28;19969;-38
2020/12/24 08:09:28;;;;;;;;;;;;;;;27.36;33.12;95905.28;4952732;28;19913;-39
2020/12/24 08:11:54;;;;;;;;;;;;;;;27.34;33.08;95918.56;4952049;28;20013;-35
2020/12/24 08:14:37;;;;;;;;;;;;;;;27.34;33.29;95909.84;4951290;28;19914;-39
2020/12/24 08:22:06;;;;;;;;;;;;;;;27.33;33.13;95922.16;4967425;28;19929;-35
2020/12/24 08:24:32;;;;;;;;;;;;;;;27.33;33.23;95913.41;4981046;23;19961;-33
2020/12/24 08:26:57;;;;;;;;;;;;;;;27.34;33.14;95910.66;4947131;28;19969;-35
2020/12/24 08:29:22;;;;;;;;;;;;;;;27.35;31.83;95919.41;4954662;28;19954;-34
2020/12/24 08:31:48;;;;;;;;;;;;;;;27.31;32.91;95912.69;4944230;28;19969;-31
2020/12/24 08:34:13;;;;;;;;;;;;;;;27.30;33.24;95914.47;4940732;28;19921;-37
2020/12/24 08:36:45;;;;;;;;;;;;;;;27.27;33.66;95917.34;4943118;28;19918;-32
2020/12/24 08:39:12;;;;;;;;;;;;;;;27.29;33.48;95915.44;4971443;23;20219;-34
2020/12/24 08:41:47;;;;;;;;;;;;;;;27.31;33.24;95915.31;4950575;28;20455;-32
2020/12/24 08:44:18;;;;;;;;;;;;;;;27.33;33.18;95922.16;4949995;28;19964;-32
2020/12/24 08:46:44;;;;;;;;;;;;;;;27.33;33.24;95916.88;4967269;28;20452;-30
2020/12/24 08:49:22;;;;;;;;;;;;;;;27.33;33.23;95922.16;4968777;28;19910;-34
2020/12/24 08:51:48;;;;;;;;;;;;;;;27.33;33.36;95927.41;4970107;28;19917;-30
2020/12/24 08:54:14;;;;;;;;;;;;;;;27.33;33.34;95926.56;4966532;28;19913;-34
2020/12/24 08:56:40;;;;;;;;;;;;;;;27.33;33.43;95921.31;4595817;28;10000557;-35
2020/12/24 08:59:06;;;;;;;;;;;;;;;27.20;33.63;95890.66;4950398;28;19922;-32
2020/12/24 09:01:31;;;;;;;;;;;;;;;27.31;33.47;95918.78;4956612;28;19998;-33
2020/12/24 09:03:57;;;;;;;;;;;;;;;27.29;33.74;95917.22;4973492;28;19918;-32
2020/12/24 09:06:22;;;;;;;;;;;;;;;27.28;33.57;95919.03;4954417;28;19973;-33
2020/12/24 09:08:51;;;;;;;;;;;;;;;27.29;33.59;95915.44;4954037;28;19925;-35
2020/12/24 09:11:29;;;;;;;;;;;;;;;27.28;28.55;95924.28;4949600;28;20044;-34
2020/12/24 09:13:58;;;;;;;;;;;;;;;27.01;23.73;95920.06;4956389;28;19922;-33
2020/12/24 09:16:23;;;;;;;;;;;;;;;26.55;22.70;95938.13;4953522;28;19949;-35
2020/12/24 09:18:59;;;;;;;;;;;;;;;26.08;22.64;95930.75;4941636;28;19968;-32
2020/12/24 09:21:24;;;;;;;;;;;;;;;25.64;22.81;95945.06;4956849;28;19914;-32
2020/12/24 09:23:50;;;;;;;;;;;;;;;25.30;23.86;95930.59;4960313;28;19928;-33
2020/12/24 09:26:15;;;;;;;;;;;;;;;25.18;25.11;95942.69;4957231;28;19938;-34
2020/12/24 09:28:40;;;;;;;;;;;;;;;25.16;25.95;95933.25;4957236;28;19972;-33
2020/12/24 09:31:06;;;;;;;;;;;;;;;25.24;26.48;95930.97;4956268;28;20405;-31
2020/12/24 09:33:31;;;;;;;;;;;;;;;25.34;26.96;95930.38;4955469;28;19988;-34
2020/12/24 09:35:56;;;;;;;;;;;;;;;25.45;27.16;95928.72;4956940;28;19976;-32
2020/12/24 09:38:21;;;;;;;;;;;;;;;25.57;27.19;95929.75;4954466;28;20423;-35
2020/12/24 09:40:47;;;;;;;;;;;;;;;25.67;27.48;95931.75;4953878;28;20725;-33
2020/12/24 10:04:58;;;;;;;3.72;1.65;;;;;;;25.31;30.65;95957.63;5054892;27;20418;-41
2020/12/24 10:07:24;;;;;;;4.00;1.83;;;;;;;25.29;30.97;95952.47;5050699;28;20131;-43
2020/12/24 10:09:50;;;;;;;5.22;1.65;;;;;;;25.26;31.15;95950.09;5050458;28;20033;-43
2020/12/24 10:12:23;;;;;;;6.13;1.70;;;;;;;25.24;31.38;95951.94;5048497;28;20123;-41
2020/12/24 10:14:48;;;;;;;3.92;1.90;;;;;;;25.25;31.33;95948.38;5049089;28;20127;-40
2020/12/24 10:17:15;;;;;;;12.70;1.90;;;;;;;25.25;31.39;95948.38;5054207;28;20407;-39
2020/12/24 10:19:43;;;;;;;5.70;1.48;;;;;;;25.27;31.70;95951.75;5053268;28;20797;-41
2020/12/24 10:22:12;;;;;;;3.88;1.50;;;;;;;25.28;31.91;95953.44;5054137;28;20179;-42
2020/12/24 10:24:40;;;;;;;7.32;1.85;;;;;;;25.30;32.01;95938.47;5061686;28;20043;-44
2020/12/24 10:27:06;;;;;;;4.45;2.03;;;;;;;25.33;31.89;95947.91;5053678;28;20048;-43
2020/12/24 10:29:32;;;;;;;5.32;1.70;;;;;;;25.35;32.10;95947.81;5052457;28;20514;-39
2020/12/24 10:31:57;;;;;;;7.78;1.85;;;;;;;25.31;32.21;95927.03;5033158;28;20300;-44
2020/12/24 10:34:23;;;;;;;8.35;1.73;;;;;;;25.37;32.20;95931.03;5030975;28;20037;-43
2020/12/24 10:36:49;;;;;;;7.03;1.60;;;;;;;25.39;32.47;95933.53;5028519;28;20123;-45
2020/12/24 10:39:15;;;;;;;4.60;1.15;;;;;;;25.41;32.37;95927.28;5031469;28;20041;-41
2020/12/24 10:41:41;;;;;;;9.85;1.40;;;;;;;25.44;32.30;95932.28;5041835;28;20041;-43
2020/12/24 10:44:07;;;;;;;4.88;1.30;;;;;;;25.47;32.64;95941.75;5028250;28;20087;-43
2020/12/24 10:46:32;;;;;;;7.93;1.55;;;;;;;25.50;32.53;95943.31;5040751;28;20513;-39
2020/12/24 10:48:58;;;;;;;12.82;1.98;;;;;;;25.52;32.83;95942.28;5053221;28;20059;-44
2020/12/24 10:51:24;;;;;;;11.68;1.92;;;;;;;25.54;32.61;95943.03;5050772;28;20076;-42
2020/12/24 10:53:50;;;;;;;9.35;1.80;;;;;;;25.56;32.98;95940.34;5050974;28;20037;-44
2020/12/24 10:56:15;;;;;;;3.03;1.30;;;;;;;25.59;33.17;95941.94;5050640;28;22774;-41
2020/12/24 10:58:42;;;;;;;7.55;2.00;;;;;;;25.59;33.40;95934.06;5050101;28;20419;-41
2020/12/24 11:01:13;;;;;;;6.43;1.60;;;;;;;25.57;33.51;95937.63;5047069;28;20052;-49
2020/12/24 11:03:39;;;;;;;;;;;;;;;25.62;33.82;95941.72;5051309;28;20039;-48
2020/12/24 11:06:08;;;;;;;3.75;1.33;;;;;;;25.63;33.96;95935.53;5037487;28;19912;-43
2020/12/24 11:08:34;;;;;;;5.30;1.60;;;;;;;25.65;34.47;95928.38;5038419;28;20090;-48
2020/12/24 11:11:00;;;;;;;4.43;1.73;;;;;;;25.67;34.54;95931.75;5038188;28;20499;-40
2020/12/24 11:13:26;;;;;;;5.10;1.45;;;;;;;25.67;34.55;95926.53;5037767;28;20036;-42
2020/12/24 11:15:52;;;;;;;9.02;1.67;;;;;;;25.69;34.72;95924.63;5033827;28;20041;-42
2020/12/24 11:18:17;;;;;;;3.92;1.50;;;;;;;25.72;34.50;95927.06;5053157;28;20045;-45
2020/12/24 11:20:43;;;;;;;4.70;1.40;;;;;;;25.74;34.73;95927.78;5038961;28;20738;-43
2020/12/24 11:23:08;;;;;;;4.03;1.17;;;;;;;25.78;34.65;95928.44;5038188;28;20045;-45
2020/12/24 11:25:34;;;;;;;7.60;1.42;;;;;;;25.80;34.69;95922.13;5035126;28;20052;-51
2020/12/24 11:28:00;;;;;;;6.63;1.25;;;;;;;25.82;34.52;95935.16;5040235;28;20635;-46
2020/12/24 11:30:26;;;;;;;3.58;1.42;;;;;;;25.85;34.74;95928.84;5036623;28;20075;-48
2020/12/24 11:32:51;;;;;;;8.82;1.50;;;;;;;25.86;34.56;95941.03;5038730;28;20041;-42
2020/12/24 11:35:17;;;;;;;3.95;1.30;;;;;;;25.86;34.92;95941.03;5039936;28;20049;-47
2020/12/24 11:37:42;;;;;;;2.53;1.10;;;;;;;25.89;34.92;95939.03;5032830;28;20037;-44
2020/12/24 11:40:08;;;;;;;3.47;1.17;;;;;;;25.90;34.80;95934.63;5037223;28;20160;-44
2020/12/24 11:42:33;;;;;;;4.60;1.17;;;;;;;25.92;34.86;95930.09;5036636;28;20067;-44
2020/12/24 11:44:59;;;;;;;3.92;1.13;;;;;;;25.94;34.84;95929.06;5037187;28;20035;-45
2020/12/24 11:47:24;;;;;;;5.30;1.30;;;;;;;25.96;34.93;95931.59;5034725;28;20675;-44
2020/12/24 11:49:50;;;;;;;2.38;0.90;;;;;;;25.98;34.93;95929.72;5036941;28;20037;-44
2020/12/24 11:52:15;;;;;;;6.97;1.52;;;;;;;26.00;35.06;95929.63;5038049;28;20148;-45
2020/12/24 11:54:42;;;;;;;3.72;1.10;;;;;;;26.03;34.98;95938.13;5035105;28;20126;-46
2020/12/24 11:57:08;;;;;;;4.60;1.20;;;;;;;26.03;34.93;95932.00;5041075;28;20499;-44
2020/12/24 11:59:34;;;;;;;3.92;1.40;;;;;;;26.05;34.96;95936.22;5045077;28;20047;-46
2020/12/24 12:01:59;;;;;;;7.05;1.42;;;;;;;26.06;35.01;95940.53;5040739;28;20045;-47
2020/12/24 12:04:26;;;;;;;4.45;1.10;;;;;;;26.07;31.40;95934.34;5037207;28;20037;-49
2020/12/24 12:06:52;;;;;;;9.13;1.10;;;;;;;25.95;29.98;95936.00;5032891;28;21940;-45
2020/12/24 12:09:17;;;;;;;3.92;1.13;;;;;;;25.91;32.96;95938.94;5036952;28;20037;-45
2020/12/24 12:11:45;;;;;;;3.88;1.17;;;;;;;25.91;33.82;95941.56;5038543;28;20033;-42
2020/12/24 12:14:11;;;;;;;2.22;1.00;;;;;;;25.93;32.70;95937.88;5038558;28;20033;-47